Terminal Aerodrome Forecast
Issued by NWS

Home | Current Version | Previous Version | Graphics & Text | Print | Product List | Glossary On
Versions: 1 2 3 4 5 6 7 8 9 10 11 12 13
000
FTUS43 KGRB 201211 RRA
TAFRHI
TAF
KRHI 201211Z 2012/2112 14007KT P6SM SCT050 BKN200 WS014/18035KT
     FM201600 14010G17KT P6SM SCT050 OVC150 WS019/18035KT
     FM202000 15012G18KT 6SM SHRA SCT020 OVC040 WS020/19050KT
     FM210100 18009KT 4SM SHRA OVC020 WS020/21055KT
     FM210500 23007KT 3SM -SHRA BR OVC015
     FM210800 26006KT 3SM BR BKN013=

USA.gov is the U.S. government's official web portal to all federal, state and local government web resources and services.